Time;durP1;ratioP1;P1;durP2;ratioP2;P2;SDS_P1;SDS_P2;PMS_P1;PMS_P2;Temp;Humidity;BMP_temperature;BMP_pressure;BME280_temperature;BME280_humidity;BME280_pressure;Samples;Min_cycle;Max_cycle;Signal;HPM_P1;HPM_P2
2022/03/23 00:03:46;;;;;;;;;;;;;;;8.17;60.21289;103178.1;;;;-79
2022/03/23 00:08:46;;;;;;;;;;;;;;;8.11;60.2168;103174.7;;;;-78
2022/03/23 00:13:46;;;;;;;;;;;;;;;8.07;60.12207;103180;;;;-81
2022/03/23 00:16:32;;;;;;;25.3;11.8;;;;;;;;;;;;;-79
2022/03/23 00:18:48;;;;;;;;;;;;;;;8;60.10156;103176.4;;;;-80
2022/03/23 00:23:47;;;;;;;;;;;;;;;7.94;60.22559;103181.9;;;;-80
2022/03/23 00:28:49;;;;;;;;;;;;;;;7.87;60.17285;103176.9;;;;-80
2022/03/23 00:33:48;;;;;;;;;;;;;;;7.82;60.2627;103177.5;;;;-80
2022/03/23 00:38:47;;;;;;;;;;;;;;;7.77;60.19043;103178.4;;;;-81
2022/03/23 00:43:46;;;;;;;;;;;;;;;7.72;60.33887;103173.7;;;;-79
2022/03/23 00:46:33;;;;;;;27.9;11.9;;;;;;;;;;;;;-79
2022/03/23 00:48:47;;;;;;;;;;;;;;;7.65;60.01758;103173.1;;;;-81
2022/03/23 00:53:46;;;;;;;;;;;;;;;7.55;60.31445;103172.8;;;;-79
2022/03/23 00:58:46;;;;;;;;;;;;;;;7.47;60.24805;103168.4;;;;-81
2022/03/23 01:03:46;;;;;;;;;;;;;;;7.36;60.22363;103167.1;;;;-81
2022/03/23 01:08:46;;;;;;;;;;;;;;;7.3;60.43555;103166.2;;;;-81
2022/03/23 01:13:46;;;;;;;;;;;;;;;7.24;60.22754;103167.8;;;;-79
2022/03/23 01:16:36;;;;;;;23.6;11.3;;;;;;;;;;;;;-78
2022/03/23 01:18:46;;;;;;;;;;;;;;;7.17;60.31641;103168.8;;;;-80
2022/03/23 01:23:48;;;;;;;;;;;;;;;7.1;60.41797;103167.4;;;;-80
2022/03/23 01:28:46;;;;;;;;;;;;;;;7.03;60.36426;103170.9;;;;-81
2022/03/23 01:33:46;;;;;;;;;;;;;;;6.95;60.44141;103166.9;;;;-79
2022/03/23 01:38:46;;;;;;;;;;;;;;;6.92;60.27148;103166.7;;;;-80
2022/03/23 01:43:50;;;;;;;;;;;;;;;6.81;60.31152;103162.2;;;;-80
2022/03/23 01:46:35;;;;;;;24.2;10.7;;;;;;;;;;;;;-81
2022/03/23 01:48:46;;;;;;;;;;;;;;;6.77;60.18555;103158.6;;;;-81
2022/03/23 01:53:47;;;;;;;;;;;;;;;6.68;60.43555;103159.9;;;;-80
2022/03/23 01:58:49;;;;;;;;;;;;;;;6.6;60.33789;103150.3;;;;-80
2022/03/23 02:03:46;;;;;;;;;;;;;;;6.52;60.44727;103152.2;;;;-81
2022/03/23 02:08:47;;;;;;;;;;;;;;;6.47;60.41895;103148.9;;;;-80
2022/03/23 02:13:46;;;;;;;;;;;;;;;6.39;60.44043;103147.3;;;;-80
2022/03/23 02:16:41;;;;;;;22.6;10;;;;;;;;;;;;;-79
2022/03/23 02:18:46;;;;;;;;;;;;;;;6.35;60.42285;103146.3;;;;-80
2022/03/23 02:23:46;;;;;;;;;;;;;;;6.29;60.4043;103147.6;;;;-80
2022/03/23 02:28:46;;;;;;;;;;;;;;;6.23;60.3623;103145.2;;;;-81
2022/03/23 02:33:49;;;;;;;;;;;;;;;6.15;60.7041;103143.9;;;;-82
2022/03/23 02:38:46;;;;;;;;;;;;;;;6.11;60.74414;103143.8;;;;-80
2022/03/23 02:43:46;;;;;;;;;;;;;;;6.08;60.8584;103141.8;;;;-80
2022/03/23 02:46:45;;;;;;;21.4;9.8;;;;;;;;;;;;;-80
2022/03/23 02:48:51;;;;;;;;;;;;;;;6.04;60.82031;103143;;;;-81
2022/03/23 03:03:46;;;;;;;;;;;;;;;6.03;60.98438;103142.1;;;;-80
2022/03/23 03:08:49;;;;;;;;;;;;;;;5.99;60.84668;103137.3;;;;-79
2022/03/23 03:13:48;;;;;;;;;;;;;;;5.99;60.92383;103145.3;;;;-81
2022/03/23 03:16:36;;;;;;;21.3;9.8;;;;;;;;;;;;;-82
2022/03/23 03:18:49;;;;;;;;;;;;;;;5.96;60.87598;103143.4;;;;-80
2022/03/23 03:23:49;;;;;;;;;;;;;;;5.92;60.88086;103142.9;;;;-80
2022/03/23 03:28:49;;;;;;;;;;;;;;;5.88;61.17285;103146.4;;;;-81
2022/03/23 03:33:46;;;;;;;;;;;;;;;5.84;60.72656;103141.8;;;;-80
2022/03/23 03:38:48;;;;;;;;;;;;;;;5.79;61.21484;103148.9;;;;-79
2022/03/23 03:43:49;;;;;;;;;;;;;;;5.74;60.99805;103145;;;;-79
2022/03/23 03:46:34;;;;;;;24.5;10.1;;;;;;;;;;;;;-81
2022/03/23 03:48:46;;;;;;;;;;;;;;;5.67;60.73633;103152;;;;-81
2022/03/23 03:53:46;;;;;;;;;;;;;;;5.63;60.59766;103154.5;;;;-79
2022/03/23 03:58:46;;;;;;;;;;;;;;;5.57;60.66699;103157.9;;;;-82
2022/03/23 04:03:49;;;;;;;;;;;;;;;5.51;60.4707;103159.6;;;;-80
2022/03/23 04:08:46;;;;;;;;;;;;;;;5.48;60.36719;103160;;;;-80
2022/03/23 04:13:47;;;;;;;;;;;;;;;5.38;60.51953;103160;;;;-78
2022/03/23 04:16:34;;;;;;;21.2;9.1;;;;;;;;;;;;;-82
2022/03/23 04:18:46;;;;;;;;;;;;;;;5.3;60.61719;103168.5;;;;-80
2022/03/23 04:23:46;;;;;;;;;;;;;;;5.26;60.56738;103170.6;;;;-80
2022/03/23 04:28:47;;;;;;;;;;;;;;;5.16;60.62012;103169.8;;;;-79
2022/03/23 04:33:53;;;;;;;;;;;;;;;5.12;60.71289;103172.7;;;;-79
2022/03/23 04:38:51;;;;;;;;;;;;;;;5.05;60.75781;103174.2;;;;-81
2022/03/23 04:43:46;;;;;;;;;;;;;;;5.02;60.75488;103179.1;;;;-80
2022/03/23 04:46:41;;;;;;;21.9;9.4;;;;;;;;;;;;;-80
2022/03/23 04:48:49;;;;;;;;;;;;;;;4.98;60.84766;103176;;;;-80
2022/03/23 04:53:55;;;;;;;;;;;;;;;4.95;60.74512;103179.7;;;;-81
2022/03/23 04:58:46;;;;;;;;;;;;;;;4.93;60.91699;103187.9;;;;-81
2022/03/23 05:03:46;;;;;;;;;;;;;;;4.93;60.94922;103186;;;;-80
2022/03/23 05:08:47;;;;;;;;;;;;;;;4.94;61.19336;103183.9;;;;-81
2022/03/23 05:13:46;;;;;;;;;;;;;;;4.94;61.22559;103185.3;;;;-82
2022/03/23 05:16:45;;;;;;;22.8;9.3;;;;;;;;;;;;;-80
2022/03/23 05:18:48;;;;;;;;;;;;;;;4.93;61.31348;103183.1;;;;-81
2022/03/23 05:23:46;;;;;;;;;;;;;;;4.93;61.1582;103187.9;;;;-79
2022/03/23 05:28:53;;;;;;;;;;;;;;;4.9;61.19824;103183.6;;;;-82
2022/03/23 05:33:48;;;;;;;;;;;;;;;4.87;61.29297;103182.6;;;;-79
2022/03/23 05:38:46;;;;;;;;;;;;;;;4.86;61.02734;103184.3;;;;-78
2022/03/23 05:43:47;;;;;;;;;;;;;;;4.82;60.69336;103189.8;;;;-82
2022/03/23 05:46:33;;;;;;;21.7;8.8;;;;;;;;;;;;;-80
2022/03/23 05:48:49;;;;;;;;;;;;;;;4.79;61.25977;103193.2;;;;-81
2022/03/23 05:53:49;;;;;;;;;;;;;;;4.79;60.91895;103193.7;;;;-81
2022/03/23 05:58:46;;;;;;;;;;;;;;;4.75;61.00195;103201.7;;;;-78
2022/03/23 06:03:49;;;;;;;;;;;;;;;4.75;61.22168;103205.5;;;;-81
2022/03/23 06:08:51;;;;;;;;;;;;;;;4.8;61.42578;103206;;;;-79
2022/03/23 06:13:52;;;;;;;;;;;;;;;4.81;61.1084;103209.8;;;;-80
2022/03/23 06:16:33;;;;;;;22.5;9.3;;;;;;;;;;;;;-81
2022/03/23 06:18:48;;;;;;;;;;;;;;;4.9;61.79102;103213.1;;;;-81
2022/03/23 06:23:49;;;;;;;;;;;;;;;5.07;61.08008;103215.6;;;;-80
2022/03/23 06:28:52;;;;;;;;;;;;;;;5.29;60.11035;103217.7;;;;-81
2022/03/23 06:33:54;;;;;;;;;;;;;;;5.47;59.82813;103225.3;;;;-81
2022/03/23 06:38:52;;;;;;;;;;;;;;;5.68;59.69141;103226.1;;;;-79
2022/03/23 06:43:49;;;;;;;;;;;;;;;5.88;59.1123;103229.8;;;;-80
2022/03/23 06:46:36;;;;;;;26.8;10.6;;;;;;;;;;;;;-79
2022/03/23 06:48:47;;;;;;;;;;;;;;;6.03;58.59375;103231.7;;;;-80
2022/03/23 06:53:57;;;;;;;;;;;;;;;6.19;58.5498;103230.2;;;;-79
2022/03/23 06:58:56;;;;;;;;;;;;;;;6.36;58.60645;103231.1;;;;-79
2022/03/23 07:03:48;;;;;;;;;;;;;;;6.51;58.74902;103232.5;;;;-81
2022/03/23 07:13:47;;;;;;;;;;;;;;;6.93;58.77148;103239.9;;;;-79
2022/03/23 07:16:33;;;;;;;31.4;12.5;;;;;;;;;;;;;-79
2022/03/23 07:18:46;;;;;;;;;;;;;;;7.15;58.80078;103247.5;;;;-78
2022/03/23 07:23:50;;;;;;;;;;;;;;;7.4;58.63574;103250.6;;;;-80
2022/03/23 07:28:50;;;;;;;;;;;;;;;7.69;58.36621;103252.1;;;;-80
2022/03/23 07:33:50;;;;;;;;;;;;;;;8.03;58.13672;103250.6;;;;-81
2022/03/23 07:38:46;;;;;;;;;;;;;;;8.38;58.07031;103244.1;;;;-80
2022/03/23 07:43:49;;;;;;;;;;;;;;;8.76;57.41211;103247.2;;;;-80
2022/03/23 07:46:33;;;;;;;34.9;14.4;;;;;;;;;;;;;-79
2022/03/23 07:48:57;;;;;;;;;;;;;;;9.18;56.91211;103241.6;;;;-80
2022/03/23 07:53:46;;;;;;;;;;;;;;;9.59;57.06543;103247.4;;;;-80
2022/03/23 07:58:46;;;;;;;;;;;;;;;10.01;56.93164;103246.3;;;;-83
2022/03/23 08:03:50;;;;;;;;;;;;;;;10.46;55.77637;103244.8;;;;-82
2022/03/23 08:08:46;;;;;;;;;;;;;;;10.94;55.37988;103248.6;;;;-81
2022/03/23 08:14:00;;;;;;;;;;;;;;;11.51;55.49609;103252.7;;;;-82
2022/03/23 08:16:36;;;;;;;35.8;16.1;;;;;;;;;;;;;-79
2022/03/23 08:18:46;;;;;;;;;;;;;;;12.18;55.62598;103256;;;;-79
2022/03/23 08:28:49;;;;;;;;;;;;;;;13.21;54.45703;103250;;;;-82
2022/03/23 08:33:50;;;;;;;;;;;;;;;13.74;53.90625;103243.8;;;;-81
2022/03/23 08:38:54;;;;;;;;;;;;;;;14.32;52.89648;103243.3;;;;-83
2022/03/23 08:43:56;;;;;;;;;;;;;;;14.87;51.95898;103244.8;;;;-82
2022/03/23 08:46:39;;;;;;;34.3;16.3;;;;;;;;;;;;;-82
2022/03/23 08:48:46;;;;;;;;;;;;;;;15.31;51.65137;103245.9;;;;-81
2022/03/23 08:53:53;;;;;;;;;;;;;;;15.6;51.2666;103246.3;;;;-80
2022/03/23 08:58:48;;;;;;;;;;;;;;;15.93;50.53711;103246.9;;;;-82
2022/03/23 09:04:00;;;;;;;;;;;;;;;16.3;50.01367;103249;;;;-84
2022/03/23 09:08:54;;;;;;;;;;;;;;;16.59;49.32129;103248.9;;;;-81
2022/03/23 09:13:57;;;;;;;;;;;;;;;16.96;48.97852;103251.9;;;;-81
2022/03/23 09:16:38;;;;;;;30.4;15.3;;;;;;;;;;;;;-82
2022/03/23 09:18:49;;;;;;;;;;;;;;;17.27;48.41016;103256.8;;;;-81
2022/03/23 09:23:50;;;;;;;;;;;;;;;17.54;48.00977;103254.5;;;;-83
2022/03/23 09:28:48;;;;;;;;;;;;;;;17.89;46.86523;103250.9;;;;-82
2022/03/23 09:34:02;;;;;;;;;;;;;;;18.16;46.24512;103251.6;;;;-83
2022/03/23 09:38:48;;;;;;;;;;;;;;;18.46;46.08398;103254.1;;;;-83
2022/03/23 09:43:49;;;;;;;;;;;;;;;18.73;45.28027;103247.8;;;;-79
2022/03/23 09:46:46;;;;;;;29.1;14.5;;;;;;;;;;;;;-83
2022/03/23 09:48:49;;;;;;;;;;;;;;;18.89;44.88672;103243.1;;;;-82
2022/03/23 09:53:52;;;;;;;;;;;;;;;18.99;43.90527;103243.1;;;;-81
2022/03/23 10:02:35;;;;;;;;;;;;;;;19.26;43.86328;103238.4;;;;-81
2022/03/23 10:07:19;;;;;;;;;;;;;;;19.42;43.49121;103244.8;;;;-83
2022/03/23 10:12:40;;;;;;;;;;;;;;;19.52;43.93555;103241.8;;;;-80
2022/03/23 10:16:52;;;;;;;24;13.4;;;;;;;;;;;;;-81
2022/03/23 10:17:43;;;;;;;;;;;;;;;19.66;43.12598;103244.4;;;;-82
2022/03/23 10:22:20;;;;;;;;;;;;;;;19.84;44.62891;103246.8;;;;-82
2022/03/23 10:27:26;;;;;;;;;;;;;;;20.05;44.72949;103238.2;;;;-82
2022/03/23 10:32:23;;;;;;;;;;;;;;;20.33;46.66699;103237.8;;;;-83
2022/03/23 10:37:19;;;;;;;;;;;;;;;20.6;46.24902;103233.5;;;;-81
2022/03/23 10:42:30;;;;;;;;;;;;;;;20.89;48.46484;103234.9;;;;-82
2022/03/23 10:47:27;;;;;;;;;;;;;;;21.14;47.75977;103233;;;;-81
2022/03/23 10:52:22;;;;;;;;;;;;;;;21.26;46.61621;103228;;;;-84
2022/03/23 10:57:22;;;;;;;;;;;;;;;21.4;47.69434;103226.2;;;;-82
2022/03/23 11:02:30;;;;;;;;;;;;;;;21.6;47.64746;103224.5;;;;-82
2022/03/23 11:07:35;;;;;;;;;;;;;;;21.73;46.46973;103224.9;;;;-82
2022/03/23 11:16:58;;;;;;;20.5;12.4;;;;;;;;;;;;;-82
2022/03/23 11:17:27;;;;;;;;;;;;;;;22.07;47.65234;103212.1;;;;-80
2022/03/23 11:22:37;;;;;;;;;;;;;;;22.33;47.81836;103216.2;;;;-81
2022/03/23 11:27:18;;;;;;;;;;;;;;;22.55;49.48242;103216.4;;;;-82
2022/03/23 11:32:17;;;;;;;;;;;;;;;22.8;48.74121;103215;;;;-83
2022/03/23 11:42:22;;;;;;;;;;;;;;;23.2;49.09473;103211;;;;-83
2022/03/23 11:47:06;;;;;;;20.5;11.4;;;;;;;;;;;;;-82
2022/03/23 11:47:39;;;;;;;;;;;;;;;23.31;49.44043;103197.2;;;;-80
2022/03/23 12:03:03;;;;;;;;;;;;;;;23.9;49.06738;103189;;;;-83
2022/03/23 12:08:25;;;;;;;;;;;;;;;;;;;;;
2022/03/23 12:12:58;;;;;;;;;;;;;;;24.18;47.49805;103181.3;;;;-85
2022/03/23 12:18:37;;;;;;;;;;;;;;;;;;;;;
2022/03/23 12:26:41;;;;;;;;;;;;;;;24.22;48.49219;103170.8;;;;-81
2022/03/23 12:41:46;;;;;;;;;;;;;;;24.43;49.26465;103153.3;;;;-83
2022/03/23 12:46:36;;;;;;;;;;;;;;;24.52;48.93945;103151.7;;;;-85
2022/03/23 12:58:43;;;;;;;;;;;;;;;24.66;48.81641;103149.9;;;;-82
2022/03/23 13:03:53;;;;;;;;;;;;;;;24.67;49.07031;103152.7;;;;-82
2022/03/23 13:13:44;;;;;;;;;;;;;;;24.71;49.4668;103148;;;;-81
2022/03/23 13:17:10;;;;;;;19.7;10.7;;;;;;;;;;;;;-82
2022/03/23 13:18:50;;;;;;;;;;;;;;;24.77;50.00488;103143.5;;;;-82
2022/03/23 13:23:52;;;;;;;;;;;;;;;24.87;49.62402;103144.4;;;;-82
2022/03/23 13:28:41;;;;;;;;;;;;;;;24.97;49.27734;103133.1;;;;-83
2022/03/23 13:33:56;;;;;;;;;;;;;;;25.01;48.64648;103130.5;;;;-82
2022/03/23 13:38:45;;;;;;;;;;;;;;;25.07;47.94922;103130.2;;;;-80
2022/03/23 13:44:02;;;;;;;;;;;;;;;25.09;47.77734;103125.4;;;;-82
2022/03/23 13:47:08;;;;;;;19.9;10.3;;;;;;;;;;;;;-82
2022/03/23 13:48:58;;;;;;;;;;;;;;;25.03;49.01855;103117.2;;;;-82
2022/03/23 13:53:52;;;;;;;;;;;;;;;25.07;46.73633;103118.6;;;;-83
2022/03/23 13:58:43;;;;;;;;;;;;;;;25.1;45.88574;103110.8;;;;-82
2022/03/23 14:03:50;;;;;;;;;;;;;;;25.04;46.2373;103112.7;;;;-83
2022/03/23 14:08:47;;;;;;;;;;;;;;;25;47.24902;103111.2;;;;-81
2022/03/23 14:13:52;;;;;;;;;;;;;;;24.96;47.04883;103109.7;;;;-82
2022/03/23 14:17:16;;;;;;;19.4;10.6;;;;;;;;;;;;;-83
2022/03/23 14:18:42;;;;;;;;;;;;;;;24.95;46.91992;103106.8;;;;-83
2022/03/23 14:23:40;;;;;;;;;;;;;;;24.92;46.28223;103099.3;;;;-82
2022/03/23 14:28:47;;;;;;;;;;;;;;;24.91;45.51855;103094.1;;;;-82
2022/03/23 14:33:53;;;;;;;;;;;;;;;24.86;45.20215;103093.4;;;;-84
2022/03/23 14:38:46;;;;;;;;;;;;;;;24.78;45.07813;103091.2;;;;-83
2022/03/23 14:43:41;;;;;;;;;;;;;;;24.7;45.69336;103084.2;;;;-83
2022/03/23 14:47:13;;;;;;;19.8;9;;;;;;;;;;;;;-82
2022/03/23 14:48:39;;;;;;;;;;;;;;;24.67;44.98535;103079.2;;;;-82
2022/03/23 14:53:50;;;;;;;;;;;;;;;24.61;45.15332;103074.8;;;;-82
2022/03/23 14:58:41;;;;;;;;;;;;;;;24.5;45.87012;103078.3;;;;-82
2022/03/23 15:03:42;;;;;;;;;;;;;;;24.41;45.16797;103076.8;;;;-82
2022/03/23 15:13:55;;;;;;;;;;;;;;;24.18;45.04199;103060.4;;;;-83
2022/03/23 15:17:20;;;;;;;15.9;7.3;;;;;;;;;;;;;-83
2022/03/23 15:18:43;;;;;;;;;;;;;;;24.12;45.10352;103060.1;;;;-83
2022/03/23 15:23:44;;;;;;;;;;;;;;;24.01;44.0791;103057.6;;;;-82
2022/03/23 15:28:58;;;;;;;;;;;;;;;23.88;43.96289;103058.1;;;;-83
2022/03/23 15:33:44;;;;;;;;;;;;;;;23.67;43.87207;103052.1;;;;-83
2022/03/23 15:38:39;;;;;;;;;;;;;;;23.46;43.79395;103056.3;;;;-84
2022/03/23 15:43:39;;;;;;;;;;;;;;;23.29;43.96191;103053.8;;;;-83
2022/03/23 15:47:20;;;;;;;19.5;8.5;;;;;;;;;;;;;-83
2022/03/23 15:48:43;;;;;;;;;;;;;;;23.13;43.95703;103052.9;;;;-83
2022/03/23 15:53:40;;;;;;;;;;;;;;;22.97;44.35645;103053.4;;;;-83
2022/03/23 15:58:40;;;;;;;;;;;;;;;22.78;44.03809;103054.1;;;;-81
2022/03/23 16:03:41;;;;;;;;;;;;;;;22.6;44.18164;103051.6;;;;-83
2022/03/23 16:08:47;;;;;;;;;;;;;;;22.35;44.82422;103052.8;;;;-84
2022/03/23 16:13:54;;;;;;;;;;;;;;;22.19;44.19922;103045.1;;;;-83
2022/03/23 16:17:39;;;;;;;20.8;10.1;;;;;;;;;;;;;-82
2022/03/23 16:18:40;;;;;;;;;;;;;;;22.01;43.90527;103044.9;;;;-84
2022/03/23 16:23:44;;;;;;;;;;;;;;;21.85;43.85449;103045;;;;-82
2022/03/23 16:28:42;;;;;;;;;;;;;;;21.66;44.30664;103045.9;;;;-83
2022/03/23 16:33:50;;;;;;;;;;;;;;;21.5;44.30273;103043.7;;;;-81
2022/03/23 16:38:58;;;;;;;;;;;;;;;21.3;44.22559;103038;;;;-83
2022/03/23 16:43:49;;;;;;;;;;;;;;;21.15;44.59961;103041.4;;;;-81
2022/03/23 16:47:26;;;;;;;23.6;10.1;;;;;;;;;;;;;-82
2022/03/23 16:48:45;;;;;;;;;;;;;;;20.93;44.29199;103043.3;;;;-81
2022/03/23 16:53:55;;;;;;;;;;;;;;;20.7;45.03516;103046.7;;;;-81
2022/03/23 16:58:41;;;;;;;;;;;;;;;20.47;44.68066;103049.2;;;;-82
2022/03/23 17:13:46;;;;;;;;;;;;;;;19.7;45.74512;103050.8;;;;-81
2022/03/23 17:17:34;;;;;;;25.4;12.9;;;;;;;;;;;;;-83
2022/03/23 17:18:47;;;;;;;;;;;;;;;19.42;46.0918;103059;;;;-81
2022/03/23 17:23:43;;;;;;;;;;;;;;;19.14;46.33789;103060.2;;;;-81
2022/03/23 17:28:43;;;;;;;;;;;;;;;18.86;46.74023;103065.8;;;;-81
2022/03/23 17:33:42;;;;;;;;;;;;;;;18.57;46.74512;103067.2;;;;-82
2022/03/23 17:38:47;;;;;;;;;;;;;;;18.29;46.98633;103069.4;;;;-82
2022/03/23 17:43:41;;;;;;;;;;;;;;;18;47.26367;103070.8;;;;-82
2022/03/23 17:47:39;;;;;;;29.5;14.6;;;;;;;;;;;;;-82
2022/03/23 17:48:46;;;;;;;;;;;;;;;17.72;47.7334;103074.9;;;;-80
2022/03/23 17:53:50;;;;;;;;;;;;;;;17.44;48.45313;103074.4;;;;-80
2022/03/23 17:58:49;;;;;;;;;;;;;;;17.15;48.78418;103074.3;;;;-82
2022/03/23 18:03:50;;;;;;;;;;;;;;;16.85;48.97754;103075.7;;;;-82
2022/03/23 18:08:45;;;;;;;;;;;;;;;16.56;48.85449;103082.9;;;;-83
2022/03/23 18:13:49;;;;;;;;;;;;;;;16.29;49.1748;103090.6;;;;-82
2022/03/23 18:17:36;;;;;;;29.8;15.8;;;;;;;;;;;;;-85
2022/03/23 18:18:39;;;;;;;;;;;;;;;16.03;49.48633;103093.7;;;;-84
2022/03/23 18:23:55;;;;;;;;;;;;;;;15.79;48.97266;103097.1;;;;-82
2022/03/23 18:28:50;;;;;;;;;;;;;;;15.57;48.91406;103103.5;;;;-82
2022/03/23 18:33:50;;;;;;;;;;;;;;;15.34;49.04688;103103.9;;;;-84
2022/03/23 18:38:34;;;;;;;;;;;;;;;15.14;48.95703;103114.2;;;;-80
2022/03/23 18:43:37;;;;;;;;;;;;;;;14.92;49.13574;103109.8;;;;-81
2022/03/23 18:47:45;;;;;;;31.8;16.6;;;;;;;;;;;;;-80
2022/03/23 18:48:35;;;;;;;;;;;;;;;14.71;49.4502;103113.9;;;;-80
2022/03/23 18:53:51;;;;;;;;;;;;;;;14.51;49.59668;103111.4;;;;-79
2022/03/23 18:58:41;;;;;;;;;;;;;;;14.31;49.88965;103113;;;;-82
2022/03/23 19:03:35;;;;;;;;;;;;;;;14.13;50.03809;103112.3;;;;-81
2022/03/23 19:08:51;;;;;;;;;;;;;;;13.95;50.34375;103117;;;;-81
2022/03/23 19:13:35;;;;;;;;;;;;;;;13.77;50.61621;103119.3;;;;-81
2022/03/23 19:17:41;;;;;;;34;16.2;;;;;;;;;;;;;-81
2022/03/23 19:18:49;;;;;;;;;;;;;;;13.62;50.81152;103126.5;;;;-80
2022/03/23 19:38:47;;;;;;;;;;;;;;;12.97;51.58984;103133.3;;;;-79
2022/03/23 19:43:55;;;;;;;;;;;;;;;12.82;51.84082;103136.4;;;;-82
2022/03/23 19:47:51;;;;;;;33.6;16.3;;;;;;;;;;;;;-80
2022/03/23 19:48:43;;;;;;;;;;;;;;;12.66;52.00098;103136.2;;;;-81
2022/03/23 19:53:43;;;;;;;;;;;;;;;12.51;52.15137;103134.8;;;;-80
2022/03/23 19:58:43;;;;;;;;;;;;;;;12.35;52.37988;103139.5;;;;-81
2022/03/23 20:03:48;;;;;;;;;;;;;;;12.21;52.51953;103143.1;;;;-81
2022/03/23 20:13:45;;;;;;;;;;;;;;;11.95;52.85645;103144.1;;;;-78
2022/03/23 20:17:50;;;;;;;36.2;16.5;;;;;;;;;;;;;-81
2022/03/23 20:18:39;;;;;;;;;;;;;;;11.81;52.97461;103144.7;;;;-80
2022/03/23 20:23:38;;;;;;;;;;;;;;;11.7;53.21875;103148.3;;;;-79
2022/03/23 20:28:42;;;;;;;;;;;;;;;11.58;53.37207;103153;;;;-81
2022/03/23 20:33:37;;;;;;;;;;;;;;;11.46;53.50293;103153;;;;-82
2022/03/23 20:43:49;;;;;;;;;;;;;;;11.25;53.71191;103153.1;;;;-80
2022/03/23 20:47:50;;;;;;;36.4;17.2;;;;;;;;;;;;;-80
2022/03/23 20:48:36;;;;;;;;;;;;;;;11.14;53.94336;103145.9;;;;-81
2022/03/23 20:53:34;;;;;;;;;;;;;;;11.05;53.89941;103142;;;;-81
2022/03/23 20:58:41;;;;;;;;;;;;;;;10.94;54.2207;103146.5;;;;-83
2022/03/23 21:03:35;;;;;;;;;;;;;;;10.84;54.23047;103148.2;;;;-79
2022/03/23 21:08:48;;;;;;;;;;;;;;;10.75;54.24121;103151;;;;-80
2022/03/23 21:13:35;;;;;;;;;;;;;;;10.66;54.48535;103146.6;;;;-80
2022/03/23 21:17:45;;;;;;;40.8;17.5;;;;;;;;;;;;;-78
2022/03/23 21:18:34;;;;;;;;;;;;;;;10.59;54.67773;103147.1;;;;-80
2022/03/23 21:23:34;;;;;;;;;;;;;;;10.52;54.67969;103145.8;;;;-80
2022/03/23 21:28:35;;;;;;;;;;;;;;;10.44;54.88184;103148;;;;-81
2022/03/23 21:33:38;;;;;;;;;;;;;;;10.38;55.06445;103147.4;;;;-80
2022/03/23 21:38:49;;;;;;;;;;;;;;;10.32;55.13379;103148.5;;;;-80
2022/03/23 21:43:38;;;;;;;;;;;;;;;10.25;55.14844;103148.4;;;;-81
2022/03/23 21:47:53;;;;;;;35.5;16.3;;;;;;;;;;;;;-79
2022/03/23 21:48:35;;;;;;;;;;;;;;;10.19;55.2627;103151;;;;-79
2022/03/23 21:53:35;;;;;;;;;;;;;;;10.13;55.35645;103148.4;;;;-80
2022/03/23 21:58:34;;;;;;;;;;;;;;;10.07;55.50391;103147.3;;;;-79
2022/03/23 22:03:41;;;;;;;;;;;;;;;;;;;;;
2022/03/23 22:08:45;;;;;;;;;;;;;;;;;;;;;
2022/03/23 22:13:35;;;;;;;;;;;;;;;;;;;;;
2022/03/23 22:17:46;;;;;;;;;;;;;;;;;;;;;
2022/03/23 22:18:37;;;;;;;;;;;;;;;;;;;;;
2022/03/23 22:23:34;;;;;;;;;;;;;;;;;;;;;
2022/03/23 22:28:38;;;;;;;;;;;;;;;;;;;;;
2022/03/23 22:33:33;;;;;;;;;;;;;;;;;;;;;
2022/03/23 22:38:34;;;;;;;;;;;;;;;;;;;;;
2022/03/23 22:43:34;;;;;;;;;;;;;;;;;;;;;
2022/03/23 22:47:45;;;;;;;;;;;;;;;;;;;;;
2022/03/23 22:48:34;;;;;;;;;;;;;;;;;;;;;
2022/03/23 22:53:37;;;;;;;;;;;;;;;;;;;;;
2022/03/23 22:58:34;;;;;;;;;;;;;;;;;;;;;
2022/03/23 23:03:34;;;;;;;;;;;;;;;;;;;;;
2022/03/23 23:08:34;;;;;;;;;;;;;;;;;;;;;
2022/03/23 23:13:43;;;;;;;;;;;;;;;;;;;;;
2022/03/23 23:17:49;;;;;;;;;;;;;;;;;;;;;
2022/03/23 23:18:38;;;;;;;;;;;;;;;;;;;;;
2022/03/23 23:23:34;;;;;;;;;;;;;;;;;;;;;
2022/03/23 23:28:37;;;;;;;;;;;;;;;;;;;;;
2022/03/23 23:33:36;;;;;;;;;;;;;;;;;;;;;
2022/03/23 23:38:37;;;;;;;;;;;;;;;;;;;;;
2022/03/23 23:43:34;;;;;;;;;;;;;;;;;;;;;
2022/03/23 23:47:46;;;;;;;;;;;;;;;;;;;;;
2022/03/23 23:48:35;;;;;;;;;;;;;;;;;;;;;
2022/03/23 23:53:40;;;;;;;;;;;;;;;;;;;;;
2022/03/23 23:58:36;;;;;;;;;;;;;;;;;;;;;
